Time;durP1;ratioP1;P1;durP2;ratioP2;P2;SDS_P1;SDS_P2;PMS_P1;PMS_P2;Temp;Humidity;BMP_temperature;BMP_pressure;BME280_temperature;BME280_humidity;BME280_pressure;Samples;Min_cycle;Max_cycle;Signal;HPM_P1;HPM_P2
2022/09/20 00:01:53;;;;;;;2.85;1.50;;;7.80;99.90;;;;;;5070064;28;20059;-50
2022/09/20 00:04:19;;;;;;;3.58;2.15;;;7.80;99.90;;;;;;5065178;28;20446;-52
2022/09/20 00:06:44;;;;;;;2.97;2.15;;;7.80;99.90;;;;;;5069392;28;20078;-50
2022/09/20 00:09:11;;;;;;;1.95;1.23;;;7.80;99.90;;;;;;5070363;28;20024;-52
2022/09/20 00:11:36;;;;;;;4.63;1.67;;;7.80;99.90;;;;;;5069927;28;20024;-52
2022/09/20 00:14:04;;;;;;;4.05;1.70;;;7.70;99.90;;;;;;5069903;28;20096;-51
2022/09/20 00:16:33;;;;;;;3.30;1.35;;;7.70;99.90;;;;;;5070029;28;20390;-53
2022/09/20 00:19:02;;;;;;;6.38;2.30;;;7.70;99.90;;;;;;5070326;28;20021;-50
2022/09/20 00:21:29;;;;;;;4.57;1.80;;;7.70;99.90;;;;;;5063957;28;20032;-54
2022/09/20 00:23:56;;;;;;;3.97;1.63;;;7.70;99.90;;;;;;5070039;28;20047;-50
2022/09/20 00:26:22;;;;;;;4.75;2.30;;;7.70;99.90;;;;;;5070139;28;20490;-52
2022/09/20 00:28:47;;;;;;;2.42;1.70;;;7.70;99.90;;;;;;5070020;28;20021;-52
2022/09/20 00:31:14;;;;;;;3.80;2.10;;;7.70;99.90;;;;;;5069916;28;20027;-53
2022/09/20 00:36:26;;;;;;;4.15;1.55;;;7.70;99.90;;;;;;5070299;28;20036;-53
2022/09/20 00:39:00;;;;;;;3.28;1.67;;;7.70;99.90;;;;;;5069715;28;20028;-54
2022/09/20 00:41:27;;;;;;;5.50;1.83;;;7.60;99.90;;;;;;5038376;28;20017;-53
2022/09/20 00:43:53;;;;;;;5.60;2.40;;;7.60;99.90;;;;;;5069857;28;20032;-51
2022/09/20 00:46:26;;;;;;;3.78;2.38;;;7.60;99.90;;;;;;5069654;28;20021;-54
2022/09/20 00:48:57;;;;;;;4.05;1.77;;;7.60;99.90;;;;;;5069357;28;20102;-54
2022/09/20 00:51:28;;;;;;;7.60;2.67;;;7.60;99.90;;;;;;5069404;28;20041;-52
2022/09/20 00:53:58;;;;;;;3.70;2.00;;;7.60;99.90;;;;;;5069807;28;20028;-51
2022/09/20 00:56:31;;;;;;;4.28;2.35;;;7.60;99.90;;;;;;5069291;28;20028;-55
2022/09/20 00:59:25;;;;;;;4.20;2.22;;;7.60;99.90;;;;;;5067751;28;20068;-50
2022/09/20 01:01:57;;;;;;;5.07;1.88;;;7.50;99.90;;;;;;5049763;28;20320;-53
2022/09/20 01:04:25;;;;;;;4.70;2.30;;;7.50;99.90;;;;;;5058452;28;20017;-51
2022/09/20 01:06:53;;;;;;;5.10;2.25;;;7.50;99.90;;;;;;5042846;22;1042244;-48
2022/09/20 01:09:18;;;;;;;5.68;2.83;;;7.50;99.90;;;;;;5061269;28;20047;-44
2022/09/20 01:11:45;;;;;;;4.13;2.53;;;7.50;99.90;;;;;;5059693;28;20060;-45
2022/09/20 01:14:14;;;;;;;5.55;2.88;;;7.50;99.90;;;;;;5056270;28;20025;-44
2022/09/20 01:16:40;;;;;;;5.22;2.67;;;7.50;99.90;;;;;;5055779;28;20284;-43
2022/09/20 01:19:17;;;;;;;4.60;2.50;;;7.50;99.90;;;;;;5059118;28;20060;-45
2022/09/20 01:21:45;;;;;;;3.85;2.80;;;7.50;99.90;;;;;;5060312;28;20500;-42
2022/09/20 01:24:32;;;;;;;3.95;2.65;;;7.50;99.90;;;;;;5057375;28;20074;-43
2022/09/20 01:27:19;;;;;;;3.97;2.63;;;7.40;99.90;;;;;;5037997;28;20111;-42
2022/09/20 01:30:04;;;;;;;5.20;2.38;;;7.40;99.90;;;;;;5058978;28;20017;-44
2022/09/20 01:32:43;;;;;;;5.63;2.88;;;7.40;99.90;;;;;;5034194;28;20028;-45
2022/09/20 01:35:10;;;;;;;5.97;3.25;;;7.40;99.90;;;;;;5059452;28;20017;-48
2022/09/20 01:38:02;;;;;;;4.28;2.88;;;7.30;99.90;;;;;;5060408;28;20056;-43
2022/09/20 01:40:39;;;;;;;5.65;2.47;;;7.30;99.90;;;;;;5056557;28;20488;-43
2022/09/20 01:43:24;;;;;;;3.53;2.67;;;7.30;99.90;;;;;;5063012;28;20036;-43
2022/09/20 01:45:51;;;;;;;4.50;3.13;;;7.30;99.90;;;;;;5053461;28;20067;-43
2022/09/20 01:48:23;;;;;;;6.28;2.78;;;7.30;99.90;;;;;;5056897;28;20025;-43
2022/09/20 01:51:09;;;;;;;4.00;2.22;;;7.30;99.90;;;;;;5053487;28;20116;-43
2022/09/20 01:53:40;;;;;;;5.63;2.40;;;7.20;99.90;;;;;;5061920;28;20021;-45
2022/09/20 01:56:20;;;;;;;8.25;2.88;;;7.20;99.90;;;;;;5058735;28;20378;-43
2022/09/20 01:59:08;;;;;;;6.00;2.22;;;7.30;99.90;;;;;;5059705;28;20028;-43
2022/09/20 02:01:57;;;;;;;4.00;2.85;;;7.30;99.90;;;;;;5056668;28;20028;-44
2022/09/20 02:04:50;;;;;;;4.95;2.80;;;7.30;99.90;;;;;;5063730;28;20052;-43
2022/09/20 02:07:42;;;;;;;7.60;3.03;;;7.30;99.90;;;;;;5055321;28;20099;-43
2022/09/20 02:10:20;;;;;;;10.30;2.72;;;7.30;99.90;;;;;;5068395;28;20025;-44
2022/09/20 02:12:59;;;;;;;5.20;2.83;;;7.30;99.90;;;;;;5059991;28;20467;-43
2022/09/20 02:15:51;;;;;;;8.73;2.78;;;7.30;99.90;;;;;;5051026;28;20024;-43
2022/09/20 02:18:42;;;;;;;3.97;2.67;;;7.30;99.90;;;;;;5052443;28;20075;-44
2022/09/20 02:21:34;;;;;;;4.80;2.40;;;7.30;99.90;;;;;;5046430;28;20032;-44
2022/09/20 02:24:19;;;;;;;4.57;2.08;;;7.30;99.90;;;;;;5061833;28;20455;-44
2022/09/20 02:27:16;;;;;;;3.97;2.35;;;7.30;99.90;;;;;;5055782;28;20468;-43
2022/09/20 02:30:16;;;;;;;2.28;1.98;;;7.20;99.90;;;;;;5056386;28;20025;-43
2022/09/20 02:33:11;;;;;;;4.93;1.85;;;7.20;99.90;;;;;;5056313;28;20029;-43
2022/09/20 02:35:50;;;;;;;4.40;1.80;;;7.20;99.90;;;;;;5062933;28;20394;-45
2022/09/20 02:38:32;;;;;;;4.15;2.17;;;7.20;99.90;;;;;;5057281;28;20364;-43
2022/09/20 02:41:42;;;;;;;2.95;2.65;;;7.10;99.90;;;;;;5065503;28;20032;-42
2022/09/20 02:44:37;;;;;;;7.88;2.78;;;7.10;99.90;;;;;;5061506;28;20059;-43
2022/09/20 02:47:38;;;;;;;3.03;2.47;;;7.10;99.90;;;;;;5060150;28;20075;-44
2022/09/20 02:50:16;;;;;;;2.70;1.90;;;7.10;99.90;;;;;;5062289;28;20044;-43
2022/09/20 02:53:04;;;;;;;5.63;2.05;;;7.10;99.90;;;;;;5062881;28;20024;-43
2022/09/20 02:55:55;;;;;;;6.65;2.75;;;7.10;99.90;;;;;;5041025;28;20032;-43
2022/09/20 02:58:41;;;;;;;3.17;2.05;;;7.10;99.90;;;;;;5054124;28;20043;-43
2022/09/20 03:01:25;;;;;;;2.72;2.35;;;7.10;99.90;;;;;;5061806;28;20032;-43
2022/09/20 03:03:50;;;;;;;3.05;2.17;;;7.10;99.90;;;;;;5061130;28;20043;-44
2022/09/20 03:06:37;;;;;;;4.72;2.05;;;7.10;99.90;;;;;;5062380;28;20120;-44
2022/09/20 03:09:12;;;;;;;3.10;2.28;;;7.10;99.90;;;;;;5062288;28;20096;-46
2022/09/20 03:12:13;;;;;;;6.35;2.47;;;7.00;99.90;;;;;;5061807;28;20032;-44
2022/09/20 03:15:13;;;;;;;6.28;2.40;;;7.00;99.90;;;;;;5058937;28;20035;-43
2022/09/20 03:17:51;;;;;;;5.55;2.72;;;7.00;99.90;;;;;;5054839;28;20211;-46
2022/09/20 03:20:54;;;;;;;4.22;2.60;;;7.00;99.90;;;;;;5052729;28;20091;-46
2022/09/20 03:23:38;;;;;;;7.45;2.25;;;6.90;99.90;;;;;;5048978;28;20554;-45
2022/09/20 03:26:33;;;;;;;5.50;2.83;;;6.90;99.90;;;;;;5042200;28;20063;-48
2022/09/20 03:29:04;;;;;;;5.22;2.90;;;6.90;99.90;;;;;;5065386;28;20066;-44
2022/09/20 03:31:29;;;;;;;5.22;2.88;;;6.90;99.90;;;;;;5058630;28;20028;-46
2022/09/20 03:34:14;;;;;;;2.72;2.28;;;6.90;99.90;;;;;;5066275;28;20028;-43
2022/09/20 03:37:12;;;;;;;4.22;2.70;;;6.80;99.90;;;;;;5058727;28;20243;-46
2022/09/20 03:40:00;;;;;;;3.00;2.70;;;6.80;99.90;;;;;;5033696;28;20123;-46
2022/09/20 03:42:28;;;;;;;7.35;2.55;;;6.80;99.90;;;;;;5051569;28;20516;-43
2022/09/20 03:45:18;;;;;;;5.25;2.50;;;6.80;99.90;;;;;;5060420;28;20032;-43
2022/09/20 03:48:03;;;;;;;5.60;2.28;;;6.80;99.90;;;;;;5043945;28;20437;-47
2022/09/20 03:50:50;;;;;;;2.28;2.08;;;6.70;99.90;;;;;;5057053;28;20028;-45
2022/09/20 03:53:46;;;;;;;3.70;2.03;;;6.70;99.90;;;;;;5053436;28;20398;-43
2022/09/20 03:56:24;;;;;;;4.43;2.50;;;6.60;99.90;;;;;;5061777;28;20028;-43
2022/09/20 03:59:01;;;;;;;4.38;2.40;;;6.60;99.90;;;;;;5059501;28;20032;-44
2022/09/20 04:01:59;;;;;;;3.08;2.47;;;6.60;99.90;;;;;;5061748;28;20201;-43
2022/09/20 04:04:51;;;;;;;3.55;2.45;;;6.50;99.90;;;;;;5053020;28;20020;-45
2022/09/20 04:07:28;;;;;;;4.10;2.90;;;6.50;99.90;;;;;;5058818;28;20040;-44
2022/09/20 04:10:12;;;;;;;5.82;2.58;;;6.50;99.90;;;;;;5060745;28;20497;-44
2022/09/20 04:12:56;;;;;;;2.85;2.15;;;6.50;99.90;;;;;;5052690;28;20033;-43
2022/09/20 04:15:43;;;;;;;3.88;2.38;;;6.50;99.90;;;;;;5052482;28;20494;-43
2022/09/20 04:18:27;;;;;;;2.42;2.17;;;6.50;99.90;;;;;;5060595;28;20419;-43
2022/09/20 04:21:23;;;;;;;3.80;2.55;;;6.50;99.90;;;;;;5059885;28;20025;-43
2022/09/20 04:23:58;;;;;;;3.15;2.35;;;6.50;99.90;;;;;;5061000;28;20024;-45
2022/09/20 04:26:27;;;;;;;5.47;3.00;;;6.40;99.90;;;;;;5057829;28;20052;-45
2022/09/20 04:29:04;;;;;;;3.55;2.60;;;6.40;99.90;;;;;;5064445;28;20028;-44
2022/09/20 04:31:33;;;;;;;2.30;2.10;;;6.40;99.90;;;;;;5057728;28;20017;-45
2022/09/20 04:34:01;;;;;;;3.35;2.42;;;6.40;99.90;;;;;;5065673;28;20021;-44
2022/09/20 04:36:56;;;;;;;3.58;3.00;;;6.30;99.90;;;;;;5057663;28;20478;-43
2022/09/20 04:39:53;;;;;;;3.47;2.30;;;6.30;99.90;;;;;;5047146;28;20046;-43
2022/09/20 04:42:44;;;;;;;3.83;2.38;;;6.30;99.90;;;;;;5049703;28;20098;-43
2022/09/20 04:45:18;;;;;;;3.55;2.22;;;6.30;99.90;;;;;;5059625;28;20055;-43
2022/09/20 04:48:12;;;;;;;7.22;2.83;;;6.30;99.90;;;;;;5060929;28;20478;-43
2022/09/20 04:50:46;;;;;;;3.25;2.35;;;6.30;99.90;;;;;;5058907;28;20032;-44
2022/09/20 04:53:27;;;;;;;4.55;2.55;;;6.20;99.90;;;;;;5057431;28;20158;-43
2022/09/20 04:55:55;;;;;;;2.88;2.28;;;6.20;99.90;;;;;;5057814;28;20108;-44
2022/09/20 04:58:47;;;;;;;4.00;2.58;;;6.10;99.90;;;;;;5044057;28;20439;-43
2022/09/20 05:01:41;;;;;;;2.80;2.50;;;6.10;99.90;;;;;;5060469;28;20134;-44
2022/09/20 05:04:25;;;;;;;3.67;2.67;;;6.10;99.90;;;;;;5058796;28;20021;-43
2022/09/20 05:07:20;;;;;;;5.00;2.70;;;6.00;99.90;;;;;;5059249;28;20032;-43
2022/09/20 05:09:52;;;;;;;3.03;2.70;;;6.10;99.90;;;;;;5043539;28;20541;-43
2022/09/20 05:12:42;;;;;;;3.58;2.33;;;6.00;99.90;;;;;;5054834;28;20479;-45
2022/09/20 05:15:22;;;;;;;3.35;2.70;;;6.00;99.90;;;;;;5063601;28;20036;-45
2022/09/20 05:18:31;;;;;;;4.00;2.20;;;6.00;99.90;;;;;;5053587;28;20075;-45
2022/09/20 05:21:27;;;;;;;2.55;1.90;;;6.00;99.90;;;;;;5057319;28;20029;-44
2022/09/20 05:24:26;;;;;;;4.78;2.38;;;5.90;99.90;;;;;;5059886;28;20048;-46
2022/09/20 05:27:22;;;;;;;3.42;2.33;;;6.00;99.90;;;;;;5054250;28;20043;-43
2022/09/20 05:29:57;;;;;;;6.50;3.05;;;6.00;99.90;;;;;;5058754;28;20025;-43
2022/09/20 05:32:35;;;;;;;3.38;2.17;;;6.00;99.90;;;;;;5048431;28;20060;-44
2022/09/20 05:35:11;;;;;;;3.30;2.78;;;6.00;99.90;;;;;;5062855;28;20137;-43
2022/09/20 05:37:48;;;;;;;4.32;2.50;;;6.00;99.90;;;;;;5064338;28;20039;-44
2022/09/20 05:40:32;;;;;;;;;;;6.00;99.90;;;;;;5044719;28;20036;-44
2022/09/20 05:43:10;;;;;;;3.03;2.72;;;5.90;99.90;;;;;;5062711;28;20271;-43
2022/09/20 05:46:13;;;;;;;4.13;2.60;;;6.00;99.90;;;;;;5066022;28;20632;-44
2022/09/20 05:48:56;;;;;;;2.83;2.50;;;6.00;99.90;;;;;;5019391;28;20067;-44
2022/09/20 05:51:40;;;;;;;4.93;3.60;;;6.00;99.90;;;;;;5053999;28;20490;-45
2022/09/20 05:54:29;;;;;;;7.53;3.13;;;6.10;99.90;;;;;;5062039;28;20029;-43
2022/09/20 05:57:03;;;;;;;2.53;2.20;;;6.10;99.90;;;;;;5022263;28;20025;-45
2022/09/20 05:59:42;;;;;;;3.03;1.77;;;6.10;99.90;;;;;;5064412;28;20029;-45
2022/09/20 06:02:29;;;;;;;2.83;2.60;;;6.10;99.90;;;;;;5062604;28;20395;-44
2022/09/20 06:05:28;;;;;;;2.50;2.30;;;6.10;99.90;;;;;;5063196;28;20455;-43
2022/09/20 06:08:21;;;;;;;4.65;2.88;;;6.10;99.90;;;;;;5065358;28;20045;-44
2022/09/20 06:11:02;;;;;;;5.60;2.92;;;6.20;99.90;;;;;;5060529;28;20033;-43
2022/09/20 06:14:03;;;;;;;3.72;2.70;;;6.20;99.90;;;;;;5051359;28;20070;-44
2022/09/20 06:16:55;;;;;;;3.55;2.60;;;6.20;99.90;;;;;;5054768;28;20051;-45
2022/09/20 06:19:33;;;;;;;3.50;2.35;;;6.20;99.90;;;;;;5063205;28;20024;-44
2022/09/20 06:22:08;;;;;;;3.40;2.58;;;6.20;99.90;;;;;;5061982;28;20060;-44
2022/09/20 06:24:49;;;;;;;3.00;2.20;;;6.30;99.90;;;;;;5057031;28;20087;-46
2022/09/20 06:27:53;;;;;;;2.97;2.50;;;6.30;99.90;;;;;;5048162;28;20103;-45
2022/09/20 06:30:23;;;;;;;5.00;3.10;;;6.30;99.90;;;;;;4987849;28;20168;-44
2022/09/20 06:32:56;;;;;;;3.20;2.10;;;6.40;99.90;;;;;;5062143;28;20028;-48
2022/09/20 06:35:26;;;;;;;4.85;2.55;;;6.50;99.90;;;;;;5045201;28;20024;-47
2022/09/20 06:41:27;;;;;;;2.38;2.10;;;6.60;99.90;;;;;;5014255;28;20360;-45
2022/09/20 06:43:57;;;;;;;5.07;2.40;;;6.70;99.90;;;;;;5057386;28;20495;-43
2022/09/20 06:46:26;;;;;;;2.92;2.20;;;6.80;99.90;;;;;;5063768;28;20025;-45
2022/09/20 06:48:51;;;;;;;3.10;2.38;;;6.80;99.90;;;;;;5059903;28;20044;-43
2022/09/20 06:51:17;;;;;;;6.32;2.97;;;6.90;99.90;;;;;;5066495;28;20051;-45
2022/09/20 06:53:42;;;;;;;3.90;2.78;;;7.00;99.90;;;;;;5059443;28;20041;-45
2022/09/20 06:56:14;;;;;;;5.45;2.80;;;7.10;99.90;;;;;;5062362;28;20017;-47
2022/09/20 06:58:40;;;;;;;9.93;3.08;;;7.20;99.90;;;;;;5044599;28;20060;-44
2022/09/20 07:01:05;;;;;;;3.83;2.30;;;7.30;99.90;;;;;;5061755;28;20064;-43
2022/09/20 07:03:31;;;;;;;4.85;2.30;;;7.30;99.90;;;;;;5063531;28;20025;-43
2022/09/20 07:08:33;;;;;;;6.40;2.20;;;7.50;99.90;;;;;;5017702;28;20057;-53
2022/09/20 07:11:12;;;;;;;10.13;2.42;;;7.60;99.90;;;;;;5021336;28;20014;-50
2022/09/20 07:13:38;;;;;;;5.10;2.50;;;7.70;99.90;;;;;;5022224;28;20026;-50
2022/09/20 07:16:05;;;;;;;4.75;2.70;;;7.90;99.90;;;;;;5017660;28;20018;-50
2022/09/20 07:18:32;;;;;;;6.63;2.80;;;8.00;99.90;;;;;;5014685;28;20021;-50
2022/09/20 07:20:59;;;;;;;7.90;2.72;;;8.20;99.90;;;;;;5021633;28;20026;-51
2022/09/20 07:23:25;;;;;;;7.70;2.80;;;8.30;99.90;;;;;;5016519;28;20047;-49
2022/09/20 07:25:52;;;;;;;6.15;2.10;;;8.40;99.90;;;;;;5020618;28;20084;-52
2022/09/20 07:28:19;;;;;;;6.40;2.88;;;8.60;99.90;;;;;;5022730;28;20033;-53
2022/09/20 07:30:45;;;;;;;7.57;2.72;;;8.70;99.90;;;;;;5021891;28;20427;-49
2022/09/20 07:33:16;;;;;;;8.32;4.07;;;8.80;99.90;;;;;;5022254;28;20013;-51
2022/09/20 07:35:41;;;;;;;9.45;4.20;;;8.90;99.90;;;;;;5023748;28;20459;-52
2022/09/20 07:38:07;;;;;;;8.05;2.80;;;9.00;99.90;;;;;;5021753;28;20053;-49
2022/09/20 07:40:33;;;;;;;7.40;2.50;;;9.10;99.90;;;;;;5022734;28;20036;-49
2022/09/20 07:42:58;;;;;;;5.60;2.42;;;9.20;99.90;;;;;;5020252;28;20033;-49
2022/09/20 07:45:25;;;;;;;7.85;2.25;;;9.30;99.90;;;;;;5022597;28;20509;-50
2022/09/20 07:47:52;;;;;;;10.40;3.10;;;9.50;99.90;;;;;;5020967;28;20021;-49
2022/09/20 07:50:18;;;;;;;5.90;2.00;;;9.60;99.90;;;;;;5022600;28;20480;-51
2022/09/20 07:52:44;;;;;;;6.35;2.28;;;9.80;99.90;;;;;;5020795;28;20033;-49
2022/09/20 07:55:10;;;;;;;7.20;1.88;;;9.90;99.90;;;;;;5022152;28;20578;-49
2022/09/20 07:57:37;;;;;;;7.90;2.35;;;10.10;99.90;;;;;;5021988;28;20280;-49
2022/09/20 08:00:05;;;;;;;8.57;2.30;;;10.30;99.90;;;;;;5021813;28;20030;-49
2022/09/20 08:02:31;;;;;;;7.72;1.30;;;10.40;99.90;;;;;;5021861;28;20026;-49
2022/09/20 08:04:56;;;;;;;7.55;2.03;;;10.50;99.90;;;;;;5021702;28;20040;-52
2022/09/20 08:07:23;;;;;;;6.18;1.75;;;10.60;99.90;;;;;;5022017;28;20041;-49
2022/09/20 08:09:49;;;;;;;7.00;1.85;;;10.70;99.90;;;;;;5019841;28;20044;-53
2022/09/20 08:12:16;;;;;;;12.52;1.92;;;10.80;99.90;;;;;;5009502;28;20220;-50
2022/09/20 08:14:41;;;;;;;7.05;2.08;;;10.90;99.90;;;;;;5021411;28;20056;-49
2022/09/20 08:17:09;;;;;;;9.25;2.08;;;11.00;99.90;;;;;;5021149;28;20069;-51
2022/09/20 08:19:36;;;;;;;8.38;1.60;;;11.10;99.90;;;;;;5022315;28;20551;-53
2022/09/20 08:22:01;;;;;;;5.40;1.52;;;11.20;99.90;;;;;;5020919;28;20018;-49
2022/09/20 08:24:27;;;;;;;6.20;1.40;;;11.30;99.90;;;;;;5021998;28;20040;-53
2022/09/20 08:26:52;;;;;;;8.70;2.00;;;11.50;99.90;;;;;;5020657;28;20030;-49
2022/09/20 08:29:18;;;;;;;3.58;1.38;;;11.60;99.90;;;;;;5025678;28;20018;-50
2022/09/20 08:31:43;;;;;;;3.15;1.27;;;11.70;99.90;;;;;;5018146;28;20025;-49
2022/09/20 08:34:13;;;;;;;9.45;1.98;;;11.70;99.90;;;;;;5026165;28;20058;-53
2022/09/20 08:36:44;;;;;;;3.65;1.45;;;11.80;99.90;;;;;;5018411;28;20417;-51
2022/09/20 08:39:10;;;;;;;5.43;1.95;;;11.90;99.90;;;;;;5021522;28;20033;-52
2022/09/20 08:41:45;;;;;;;5.93;1.20;;;12.00;99.90;;;;;;5021144;28;20026;-49
2022/09/20 08:44:17;;;;;;;4.53;1.25;;;12.10;99.90;;;;;;5021390;28;20163;-49
2022/09/20 08:46:49;;;;;;;7.97;1.95;;;12.20;99.90;;;;;;5020937;28;20075;-50
2022/09/20 08:49:25;;;;;;;8.35;1.75;;;12.20;99.90;;;;;;5015870;28;20025;-50
2022/09/20 08:51:53;;;;;;;7.07;1.67;;;12.20;99.90;;;;;;5002991;28;20028;-49
2022/09/20 08:54:19;;;;;;;7.07;1.77;;;12.30;99.90;;;;;;5021673;28;20025;-50
2022/09/20 08:56:47;;;;;;;8.48;2.22;;;12.30;99.90;;;;;;5020271;28;20017;-50
2022/09/20 08:59:17;;;;;;;7.40;1.42;;;12.40;99.90;;;;;;5021328;28;20010;-50
2022/09/20 09:01:43;;;;;;;5.72;1.40;;;12.40;99.90;;;;;;5002912;28;20032;-50
2022/09/20 09:04:22;;;;;;;6.20;1.23;;;12.40;99.90;;;;;;5003249;28;20025;-50
2022/09/20 09:06:49;;;;;;;4.32;1.35;;;12.50;99.90;;;;;;5020226;28;20116;-49
2022/09/20 09:09:25;;;;;;;10.70;1.52;;;12.40;99.90;;;;;;5020779;28;20057;-50
2022/09/20 09:11:52;;;;;;;3.00;1.50;;;12.50;99.90;;;;;;5024943;28;20097;-51
2022/09/20 09:17:10;;;;;;;3.63;1.25;;;12.50;99.90;;;;;;5015880;28;20626;-50
2022/09/20 09:20:21;;;;;;;7.03;1.63;;;12.60;99.90;;;;;;5027300;28;20099;-50
2022/09/20 09:22:57;;;;;;;6.25;1.50;;;12.60;99.90;;;;;;4989101;28;20030;-54
2022/09/20 09:25:25;;;;;;;;;;;12.60;99.90;;;;;;5022068;28;20029;-53
2022/09/20 09:27:58;;;;;;;9.93;1.83;;;12.50;99.90;;;;;;5028503;28;19971;-51
2022/09/20 09:30:34;;;;;;;4.97;1.20;;;12.50;99.90;;;;;;5020658;28;20105;-50
2022/09/20 09:33:33;;;;;;;2.83;0.70;;;12.60;99.90;;;;;;5029217;28;20026;-51
2022/09/20 09:36:05;;;;;;;6.35;1.15;;;12.60;99.90;;;;;;5020607;28;20507;-50
2022/09/20 09:38:35;;;;;;;6.22;1.42;;;12.70;99.90;;;;;;5024958;28;20037;-52
2022/09/20 09:41:04;;;;;;;4.25;1.40;;;12.70;99.90;;;;;;5021368;28;20488;-50
2022/09/20 09:43:36;;;;;;;9.75;2.65;;;12.50;99.90;;;;;;5024948;28;20037;-51
2022/09/20 09:46:25;;;;;;;5.32;1.50;;;12.40;99.90;;;;;;5023620;28;20026;-52
2022/09/20 09:49:32;;;;;;;7.07;1.30;;;12.40;99.90;;;;;;5024426;28;20040;-50
2022/09/20 09:52:01;;;;;;;;;;;12.50;99.90;;;;;;5023631;28;20109;-51
2022/09/20 09:54:34;;;;;;;6.55;1.65;;;12.60;99.90;;;;;;5021216;28;19909;-52
2022/09/20 09:57:25;;;;;;;8.88;1.27;;;12.70;99.90;;;;;;5027391;28;20030;-51
2022/09/20 10:00:09;;;;;;;7.93;1.80;;;12.80;99.90;;;;;;5018090;28;20026;-52
2022/09/20 10:03:12;;;;;;;4.68;1.40;;;12.80;99.90;;;;;;5024905;28;20045;-51
2022/09/20 10:06:22;;;;;;;4.43;1.20;;;12.90;99.90;;;;;;5016331;28;20316;-51
2022/09/20 10:09:17;;;;;;;11.73;2.03;;;13.10;99.90;;;;;;5021142;28;20478;-50
2022/09/20 10:12:05;;;;;;;3.92;0.75;;;13.10;99.90;;;;;;5016383;28;20101;-50
2022/09/20 10:14:49;;;;;;;1.60;0.70;;;13.10;99.90;;;;;;5012254;28;20041;-50
2022/09/20 10:17:41;;;;;;;5.82;1.10;;;13.10;99.90;;;;;;5017464;28;20025;-50
2022/09/20 10:20:27;;;;;;;10.13;1.60;;;13.10;99.90;;;;;;4997970;28;20121;-51
2022/09/20 10:23:01;;;;;;;5.87;1.07;;;13.20;99.90;;;;;;5023448;28;20052;-53
2022/09/20 10:26:03;;;;;;;3.65;0.85;;;13.30;99.90;;;;;;5022994;28;20256;-50
2022/09/20 10:28:47;;;;;;;3.97;0.95;;;13.30;99.90;;;;;;5015450;28;20025;-52
2022/09/20 10:31:28;;;;;;;5.57;1.08;;;13.20;99.90;;;;;;5022164;28;20022;-50
2022/09/20 10:34:31;;;;;;;5.13;0.98;;;13.20;99.90;;;;;;5023315;28;20022;-51
2022/09/20 10:36:58;;;;;;;3.15;1.20;;;13.20;99.90;;;;;;5022356;28;20506;-50
2022/09/20 10:39:39;;;;;;;4.25;1.27;;;13.30;99.90;;;;;;5023123;28;20030;-50
2022/09/20 10:45:06;;;;;;;6.38;1.05;;;13.40;99.90;;;;;;5027168;28;20059;-51
2022/09/20 10:47:43;;;;;;;8.73;1.20;;;13.50;99.90;;;;;;5020379;28;20026;-50
2022/09/20 10:50:50;;;;;;;6.68;1.23;;;13.40;99.90;;;;;;5028223;28;20032;-50
2022/09/20 10:53:18;;;;;;;10.65;0.95;;;13.40;99.90;;;;;;4992757;28;20112;-51
2022/09/20 10:56:01;;;;;;;5.85;1.10;;;13.50;99.90;;;;;;5022153;28;20120;-53
2022/09/20 10:58:36;;;;;;;7.43;1.63;;;13.50;99.90;;;;;;5020908;28;20033;-54
2022/09/20 11:01:08;;;;;;;4.22;1.15;;;13.60;99.90;;;;;;5022800;28;20018;-50
2022/09/20 11:04:17;;;;;;;3.83;1.10;;;13.60;99.90;;;;;;5023549;28;20434;-50
2022/09/20 11:06:54;;;;;;;4.10;1.25;;;13.50;99.90;;;;;;5022003;28;20116;-53
2022/09/20 11:09:25;;;;;;;6.25;1.40;;;13.50;99.90;;;;;;5015360;28;20021;-54
2022/09/20 11:12:24;;;;;;;7.65;1.30;;;13.50;99.90;;;;;;5019894;28;20116;-49
2022/09/20 11:14:53;;;;;;;2.80;0.88;;;13.50;99.90;;;;;;5020972;28;20018;-50
2022/09/20 11:17:26;;;;;;;6.10;1.58;;;13.60;99.90;;;;;;5023015;28;20040;-49
2022/09/20 11:20:09;;;;;;;3.55;1.38;;;13.60;99.90;;;;;;5021984;28;20491;-50
2022/09/20 11:22:43;;;;;;;3.72;0.95;;;13.70;99.90;;;;;;5022538;28;20362;-49
2022/09/20 11:25:19;;;;;;;3.58;1.77;;;13.70;99.90;;;;;;5023576;28;20079;-50
2022/09/20 11:27:57;;;;;;;3.28;1.30;;;13.70;99.90;;;;;;5025928;28;20025;-50
2022/09/20 11:30:23;;;;;;;6.18;1.45;;;13.80;99.90;;;;;;5015508;28;20018;-51
2022/09/20 11:33:04;;;;;;;5.70;1.38;;;13.90;99.90;;;;;;5026276;28;20032;-52
2022/09/20 11:35:41;;;;;;;4.90;1.23;;;14.00;99.90;;;;;;5019437;28;20022;-50
2022/09/20 11:38:15;;;;;;;5.78;1.55;;;14.00;99.90;;;;;;5021854;28;20076;-49
2022/09/20 11:40:50;;;;;;;6.78;1.00;;;14.10;99.90;;;;;;5021990;28;20013;-54
2022/09/20 11:43:18;;;;;;;5.63;1.30;;;14.10;99.90;;;;;;5016130;28;20017;-50
2022/09/20 11:45:49;;;;;;;6.57;0.98;;;14.10;99.90;;;;;;5021855;28;20033;-52
2022/09/20 11:48:32;;;;;;;10.05;1.40;;;14.10;99.90;;;;;;5016922;28;20060;-50
2022/09/20 11:51:24;;;;;;;6.07;0.80;;;14.20;99.90;;;;;;5022254;28;20121;-49
2022/09/20 11:54:14;;;;;;;2.67;1.02;;;14.20;99.90;;;;;;5014191;28;20345;-50
2022/09/20 11:56:48;;;;;;;2.13;0.85;;;14.20;99.90;;;;;;5024409;28;20101;-49
2022/09/20 11:59:33;;;;;;;2.05;0.82;;;14.30;99.90;;;;;;5019328;28;20018;-50
2022/09/20 12:02:01;;;;;;;2.42;1.00;;;14.30;99.90;;;;;;5025862;28;20021;-49
2022/09/20 12:04:30;;;;;;;3.17;0.57;;;14.50;99.90;;;;;;5018937;28;20022;-49
2022/09/20 12:07:01;;;;;;;5.80;0.93;;;14.50;99.90;;;;;;5026124;28;20026;-50
2022/09/20 12:09:34;;;;;;;4.85;1.02;;;14.50;99.90;;;;;;5018978;28;20089;-49
2022/09/20 12:12:26;;;;;;;3.72;0.70;;;14.50;99.90;;;;;;5018728;28;20472;-51
2022/09/20 12:14:57;;;;;;;5.85;1.17;;;14.50;99.90;;;;;;5018877;28;20068;-51
2022/09/20 12:17:44;;;;;;;5.63;1.75;;;14.40;99.90;;;;;;5022816;28;20017;-54
2022/09/20 12:20:31;;;;;;;5.53;1.23;;;14.40;99.90;;;;;;5021137;28;20033;-50
2022/09/20 12:23:34;;;;;;;5.75;1.02;;;14.40;99.90;;;;;;5021694;28;20021;-50
2022/09/20 12:26:05;;;;;;;2.63;1.23;;;14.40;99.90;;;;;;5018016;28;20080;-49
2022/09/20 12:28:40;;;;;;;2.75;0.93;;;14.40;99.90;;;;;;5022938;28;20453;-52
2022/09/20 12:31:18;;;;;;;2.42;0.73;;;14.40;99.90;;;;;;5020389;28;20029;-49
2022/09/20 12:34:03;;;;;;;5.80;1.48;;;14.40;99.90;;;;;;5022114;28;20338;-49
2022/09/20 12:36:33;;;;;;;6.40;2.22;;;14.40;99.90;;;;;;5012689;28;20026;-50
2022/09/20 12:39:10;;;;;;;5.40;2.13;;;14.40;99.90;;;;;;5019743;28;20091;-49
2022/09/20 12:41:50;;;;;;;6.22;1.13;;;14.50;99.90;;;;;;5015642;28;20030;-49
2022/09/20 12:44:36;;;;;;;5.13;0.93;;;14.50;99.90;;;;;;5020850;28;20495;-52
2022/09/20 12:47:14;;;;;;;2.83;1.13;;;14.60;99.90;;;;;;5019900;28;20040;-49
2022/09/20 12:53:02;;;;;;;4.00;0.68;;;14.70;99.90;;;;;;5014730;28;20119;-52
2022/09/20 12:55:41;;;;;;;3.22;1.00;;;14.70;99.70;;;;;;5009879;28;20021;-50
2022/09/20 12:58:13;;;;;;;9.35;1.02;;;14.90;99.90;;;;;;5019575;28;20046;-50
2022/09/20 13:00:51;;;;;;;2.22;0.57;;;14.80;99.30;;;;;;5021183;28;20041;-51
2022/09/20 13:03:30;;;;;;;3.72;0.50;;;14.70;99.90;;;;;;5021769;28;20018;-50
2022/09/20 13:06:05;;;;;;;3.95;0.88;;;14.60;99.90;;;;;;5020324;28;20044;-50
2022/09/20 13:08:52;;;;;;;4.53;0.85;;;14.50;99.90;;;;;;5080304;22;20414;-45
2022/09/20 13:11:51;;;;;;;1.33;0.45;;;14.60;99.90;;;;;;5054444;28;20044;-46
2022/09/20 13:14:27;;;;;;;5.25;0.65;;;14.60;99.90;;;;;;5051682;28;20060;-45
2022/09/20 13:16:59;;;;;;;3.38;0.68;;;14.70;99.90;;;;;;5055289;28;20045;-48
2022/09/20 13:19:45;;;;;;;2.42;0.88;;;14.70;99.90;;;;;;5063263;28;20461;-46
2022/09/20 13:22:21;;;;;;;4.40;0.65;;;14.90;99.90;;;;;;5060142;28;20078;-45
2022/09/20 13:24:48;;;;;;;1.88;0.70;;;14.90;99.90;;;;;;5064467;28;20028;-46
2022/09/20 13:27:24;;;;;;;5.20;1.27;;;15.10;99.90;;;;;;5059531;28;20056;-46
2022/09/20 13:29:50;;;;;;;5.35;0.90;;;15.20;99.90;;;;;;5059246;28;20029;-45
2022/09/20 13:32:27;;;;;;;3.40;1.00;;;15.40;99.90;;;;;;5060504;28;20044;-46
2022/09/20 13:35:11;;;;;;;1.98;0.88;;;15.50;99.90;;;;;;5060026;28;20025;-46
2022/09/20 13:38:05;;;;;;;4.80;1.27;;;15.60;99.90;;;;;;5052435;28;20025;-47
2022/09/20 13:40:46;;;;;;;3.97;1.40;;;15.60;99.60;;;;;;5042346;28;20390;-49
2022/09/20 13:43:31;;;;;;;1.80;0.55;;;15.60;99.90;;;;;;5060129;28;20034;-50
2022/09/20 13:46:11;;;;;;;4.15;0.82;;;15.60;99.20;;;;;;5059162;28;20373;-47
2022/09/20 13:48:37;;;;;;;2.38;1.23;;;15.60;99.10;;;;;;5042432;28;20035;-47
2022/09/20 13:51:13;;;;;;;4.53;0.40;;;15.70;98.90;;;;;;5060326;28;20017;-45
2022/09/20 13:53:39;;;;;;;3.85;1.02;;;15.70;97.60;;;;;;5060621;28;20021;-45
2022/09/20 13:56:15;;;;;;;3.55;0.70;;;15.80;97.60;;;;;;5061696;28;20210;-45
2022/09/20 13:58:41;;;;;;;3.17;0.70;;;15.70;96.90;;;;;;5064902;28;20025;-45
2022/09/20 14:01:21;;;;;;;6.90;1.30;;;15.60;97.60;;;;;;5062874;28;20029;-44
2022/09/20 14:03:47;;;;;;;3.83;1.55;;;15.50;97.60;;;;;;5064167;28;20028;-46
2022/09/20 14:06:14;;;;;;;4.00;0.98;;;15.40;99.10;;;;;;5063140;28;20100;-45
2022/09/20 14:08:44;;;;;;;2.95;0.95;;;15.30;98.70;;;;;;5046035;28;20082;-46